sensor_id;sensor_type;location;lat;lon;timestamp;P1;durP1;ratioP1;P2;durP2;ratioP2
11220;SDS011;8517;53.546;10.104;2022-12-10T00:01:37;38.40;;;20.33;;
11220;SDS011;8517;53.546;10.104;2022-12-10T00:04:05;38.80;;;21.30;;
11220;SDS011;8517;53.546;10.104;2022-12-10T00:06:32;38.50;;;19.40;;
11220;SDS011;8517;53.546;10.104;2022-12-10T00:09:02;33.47;;;19.27;;
11220;SDS011;8517;53.546;10.104;2022-12-10T00:11:30;37.67;;;20.33;;
11220;SDS011;8517;53.546;10.104;2022-12-10T00:13:58;22.37;;;12.20;;
11220;SDS011;8517;53.546;10.104;2022-12-10T00:16:25;34.73;;;18.80;;
11220;SDS011;8517;53.546;10.104;2022-12-10T00:18:53;39.93;;;20.37;;
11220;SDS011;8517;53.546;10.104;2022-12-10T00:21:23;36.40;;;20.27;;
11220;SDS011;8517;53.546;10.104;2022-12-10T00:23:51;31.27;;;15.33;;
11220;SDS011;8517;53.546;10.104;2022-12-10T00:26:20;35.30;;;19.53;;
11220;SDS011;8517;53.546;10.104;2022-12-10T00:28:48;32.60;;;16.83;;
11220;SDS011;8517;53.546;10.104;2022-12-10T00:31:17;34.50;;;18.93;;
11220;SDS011;8517;53.546;10.104;2022-12-10T00:33:44;36.83;;;18.77;;
11220;SDS011;8517;53.546;10.104;2022-12-10T00:36:13;33.43;;;18.73;;
11220;SDS011;8517;53.546;10.104;2022-12-10T00:38:41;32.77;;;18.20;;
11220;SDS011;8517;53.546;10.104;2022-12-10T00:41:09;35.67;;;18.33;;
11220;SDS011;8517;53.546;10.104;2022-12-10T00:43:38;32.07;;;16.20;;
11220;SDS011;8517;53.546;10.104;2022-12-10T00:46:05;33.17;;;18.87;;
11220;SDS011;8517;53.546;10.104;2022-12-10T00:48:32;28.17;;;17.37;;
11220;SDS011;8517;53.546;10.104;2022-12-10T00:51:00;29.27;;;16.50;;
11220;SDS011;8517;53.546;10.104;2022-12-10T00:53:29;31.83;;;18.43;;
11220;SDS011;8517;53.546;10.104;2022-12-10T00:55:57;32.97;;;17.40;;
11220;SDS011;8517;53.546;10.104;2022-12-10T00:58:26;31.60;;;17.00;;
11220;SDS011;8517;53.546;10.104;2022-12-10T01:01:01;36.00;;;18.43;;
11220;SDS011;8517;53.546;10.104;2022-12-10T01:03:33;30.93;;;17.10;;
11220;SDS011;8517;53.546;10.104;2022-12-10T01:06:06;32.27;;;17.37;;
11220;SDS011;8517;53.546;10.104;2022-12-10T01:08:34;31.47;;;16.63;;
11220;SDS011;8517;53.546;10.104;2022-12-10T01:11:01;27.40;;;15.60;;
11220;SDS011;8517;53.546;10.104;2022-12-10T01:13:28;28.83;;;15.63;;
11220;SDS011;8517;53.546;10.104;2022-12-10T01:15:56;30.90;;;17.83;;
11220;SDS011;8517;53.546;10.104;2022-12-10T01:18:25;27.83;;;15.07;;
11220;SDS011;8517;53.546;10.104;2022-12-10T01:20:52;26.83;;;16.00;;
11220;SDS011;8517;53.546;10.104;2022-12-10T01:23:19;29.97;;;16.03;;
11220;SDS011;8517;53.546;10.104;2022-12-10T01:25:46;28.73;;;16.17;;
11220;SDS011;8517;53.546;10.104;2022-12-10T01:28:13;25.53;;;14.33;;
11220;SDS011;8517;53.546;10.104;2022-12-10T01:30:39;26.80;;;14.87;;
11220;SDS011;8517;53.546;10.104;2022-12-10T01:33:08;27.50;;;14.97;;
11220;SDS011;8517;53.546;10.104;2022-12-10T01:35:35;23.67;;;13.70;;
11220;SDS011;8517;53.546;10.104;2022-12-10T01:38:02;27.37;;;15.27;;
11220;SDS011;8517;53.546;10.104;2022-12-10T01:40:29;27.17;;;15.40;;
11220;SDS011;8517;53.546;10.104;2022-12-10T01:42:56;26.80;;;15.10;;
11220;SDS011;8517;53.546;10.104;2022-12-10T01:45:23;24.90;;;14.07;;
11220;SDS011;8517;53.546;10.104;2022-12-10T01:47:50;28.07;;;15.57;;
11220;SDS011;8517;53.546;10.104;2022-12-10T01:50:18;27.90;;;15.00;;
11220;SDS011;8517;53.546;10.104;2022-12-10T01:52:45;25.07;;;14.57;;
11220;SDS011;8517;53.546;10.104;2022-12-10T01:58:03;24.23;;;12.43;;
11220;SDS011;8517;53.546;10.104;2022-12-10T02:00:31;27.50;;;14.83;;
11220;SDS011;8517;53.546;10.104;2022-12-10T02:03:02;25.57;;;14.07;;
11220;SDS011;8517;53.546;10.104;2022-12-10T02:05:38;24.70;;;14.20;;
11220;SDS011;8517;53.546;10.104;2022-12-10T02:08:10;25.70;;;12.93;;
11220;SDS011;8517;53.546;10.104;2022-12-10T02:10:55;23.87;;;13.63;;
11220;SDS011;8517;53.546;10.104;2022-12-10T02:13:31;25.30;;;14.40;;
11220;SDS011;8517;53.546;10.104;2022-12-10T02:16:04;21.97;;;12.97;;
11220;SDS011;8517;53.546;10.104;2022-12-10T02:18:37;25.23;;;14.23;;
11220;SDS011;8517;53.546;10.104;2022-12-10T02:21:11;24.87;;;14.30;;
11220;SDS011;8517;53.546;10.104;2022-12-10T02:23:43;24.80;;;14.00;;
11220;SDS011;8517;53.546;10.104;2022-12-10T02:26:15;24.90;;;13.87;;
11220;SDS011;8517;53.546;10.104;2022-12-10T02:28:48;22.37;;;13.93;;
11220;SDS011;8517;53.546;10.104;2022-12-10T02:31:23;26.13;;;14.47;;
11220;SDS011;8517;53.546;10.104;2022-12-10T02:33:53;27.20;;;15.47;;
11220;SDS011;8517;53.546;10.104;2022-12-10T02:36:23;23.43;;;14.50;;
11220;SDS011;8517;53.546;10.104;2022-12-10T02:38:52;23.83;;;14.33;;
11220;SDS011;8517;53.546;10.104;2022-12-10T02:41:23;23.87;;;12.67;;
11220;SDS011;8517;53.546;10.104;2022-12-10T02:43:53;23.77;;;14.17;;
11220;SDS011;8517;53.546;10.104;2022-12-10T02:46:23;22.40;;;13.30;;
11220;SDS011;8517;53.546;10.104;2022-12-10T02:48:53;22.37;;;13.17;;
11220;SDS011;8517;53.546;10.104;2022-12-10T02:51:20;23.03;;;13.53;;
11220;SDS011;8517;53.546;10.104;2022-12-10T02:53:47;24.43;;;14.07;;
11220;SDS011;8517;53.546;10.104;2022-12-10T02:56:26;21.70;;;13.67;;
11220;SDS011;8517;53.546;10.104;2022-12-10T02:59:01;24.00;;;13.90;;
11220;SDS011;8517;53.546;10.104;2022-12-10T03:01:40;25.47;;;13.87;;
11220;SDS011;8517;53.546;10.104;2022-12-10T03:04:13;21.87;;;13.43;;
11220;SDS011;8517;53.546;10.104;2022-12-10T03:06:44;20.60;;;11.83;;
11220;SDS011;8517;53.546;10.104;2022-12-10T03:09:17;21.63;;;12.47;;
11220;SDS011;8517;53.546;10.104;2022-12-10T03:11:48;21.00;;;12.97;;
11220;SDS011;8517;53.546;10.104;2022-12-10T03:14:22;22.07;;;13.17;;
11220;SDS011;8517;53.546;10.104;2022-12-10T03:16:55;19.23;;;12.23;;
11220;SDS011;8517;53.546;10.104;2022-12-10T03:19:25;19.90;;;13.13;;
11220;SDS011;8517;53.546;10.104;2022-12-10T03:21:57;10.87;;;6.80;;
11220;SDS011;8517;53.546;10.104;2022-12-10T03:24:26;19.27;;;12.20;;
11220;SDS011;8517;53.546;10.104;2022-12-10T03:26:53;18.53;;;11.93;;
11220;SDS011;8517;53.546;10.104;2022-12-10T03:29:22;19.10;;;11.27;;
11220;SDS011;8517;53.546;10.104;2022-12-10T03:31:52;17.90;;;11.63;;
11220;SDS011;8517;53.546;10.104;2022-12-10T03:34:21;15.03;;;10.83;;
11220;SDS011;8517;53.546;10.104;2022-12-10T03:36:49;15.37;;;10.00;;
11220;SDS011;8517;53.546;10.104;2022-12-10T03:39:16;17.20;;;11.20;;
11220;SDS011;8517;53.546;10.104;2022-12-10T03:41:44;11.50;;;8.17;;
11220;SDS011;8517;53.546;10.104;2022-12-10T03:44:11;14.73;;;10.20;;
11220;SDS011;8517;53.546;10.104;2022-12-10T03:46:38;15.03;;;9.03;;
11220;SDS011;8517;53.546;10.104;2022-12-10T03:49:06;14.37;;;9.70;;
11220;SDS011;8517;53.546;10.104;2022-12-10T03:51:33;12.27;;;8.10;;
11220;SDS011;8517;53.546;10.104;2022-12-10T03:54:00;14.80;;;10.50;;
11220;SDS011;8517;53.546;10.104;2022-12-10T03:56:26;14.27;;;10.57;;
11220;SDS011;8517;53.546;10.104;2022-12-10T03:58:53;13.10;;;9.67;;
11220;SDS011;8517;53.546;10.104;2022-12-10T04:01:20;14.60;;;9.53;;
11220;SDS011;8517;53.546;10.104;2022-12-10T04:03:47;13.40;;;9.60;;
11220;SDS011;8517;53.546;10.104;2022-12-10T04:06:15;14.07;;;9.53;;
11220;SDS011;8517;53.546;10.104;2022-12-10T04:08:43;15.00;;;9.83;;
11220;SDS011;8517;53.546;10.104;2022-12-10T04:11:13;18.30;;;10.63;;
11220;SDS011;8517;53.546;10.104;2022-12-10T04:13:44;15.37;;;11.07;;
11220;SDS011;8517;53.546;10.104;2022-12-10T04:16:30;16.60;;;10.73;;
11220;SDS011;8517;53.546;10.104;2022-12-10T04:19:02;16.00;;;10.60;;
11220;SDS011;8517;53.546;10.104;2022-12-10T04:21:32;15.60;;;10.60;;
11220;SDS011;8517;53.546;10.104;2022-12-10T04:24:18;15.73;;;10.60;;
11220;SDS011;8517;53.546;10.104;2022-12-10T04:27:04;14.43;;;10.50;;
11220;SDS011;8517;53.546;10.104;2022-12-10T04:29:34;13.40;;;9.80;;
11220;SDS011;8517;53.546;10.104;2022-12-10T04:32:00;13.73;;;9.27;;
11220;SDS011;8517;53.546;10.104;2022-12-10T04:34:27;14.30;;;9.53;;
11220;SDS011;8517;53.546;10.104;2022-12-10T04:36:56;13.57;;;9.73;;
11220;SDS011;8517;53.546;10.104;2022-12-10T04:39:23;16.00;;;9.87;;
11220;SDS011;8517;53.546;10.104;2022-12-10T04:41:50;12.73;;;9.17;;
11220;SDS011;8517;53.546;10.104;2022-12-10T04:44:17;13.43;;;9.07;;
11220;SDS011;8517;53.546;10.104;2022-12-10T04:46:44;16.17;;;10.67;;
11220;SDS011;8517;53.546;10.104;2022-12-10T04:49:11;14.10;;;10.23;;
11220;SDS011;8517;53.546;10.104;2022-12-10T04:51:38;13.47;;;10.00;;
11220;SDS011;8517;53.546;10.104;2022-12-10T04:54:07;14.53;;;10.30;;
11220;SDS011;8517;53.546;10.104;2022-12-10T04:56:34;15.10;;;10.73;;
11220;SDS011;8517;53.546;10.104;2022-12-10T04:59:02;13.07;;;10.40;;
11220;SDS011;8517;53.546;10.104;2022-12-10T05:01:30;14.93;;;10.77;;
11220;SDS011;8517;53.546;10.104;2022-12-10T05:03:57;16.23;;;11.30;;
11220;SDS011;8517;53.546;10.104;2022-12-10T05:06:25;14.53;;;10.67;;
11220;SDS011;8517;53.546;10.104;2022-12-10T05:08:52;12.10;;;8.67;;
11220;SDS011;8517;53.546;10.104;2022-12-10T05:11:21;12.90;;;9.40;;
11220;SDS011;8517;53.546;10.104;2022-12-10T05:13:49;13.97;;;8.50;;
11220;SDS011;8517;53.546;10.104;2022-12-10T05:16:17;13.97;;;10.03;;
11220;SDS011;8517;53.546;10.104;2022-12-10T05:18:45;14.87;;;9.97;;
11220;SDS011;8517;53.546;10.104;2022-12-10T05:21:13;13.50;;;9.17;;
11220;SDS011;8517;53.546;10.104;2022-12-10T05:23:43;12.73;;;8.67;;
11220;SDS011;8517;53.546;10.104;2022-12-10T05:26:11;16.10;;;10.70;;
11220;SDS011;8517;53.546;10.104;2022-12-10T05:28:41;12.53;;;8.80;;
11220;SDS011;8517;53.546;10.104;2022-12-10T05:31:13;13.30;;;9.57;;
11220;SDS011;8517;53.546;10.104;2022-12-10T05:33:42;13.27;;;9.10;;
11220;SDS011;8517;53.546;10.104;2022-12-10T05:36:10;14.57;;;9.60;;
11220;SDS011;8517;53.546;10.104;2022-12-10T05:38:38;12.37;;;8.93;;
11220;SDS011;8517;53.546;10.104;2022-12-10T05:41:07;14.63;;;9.70;;
11220;SDS011;8517;53.546;10.104;2022-12-10T05:43:36;12.70;;;8.43;;
11220;SDS011;8517;53.546;10.104;2022-12-10T05:46:06;13.73;;;10.03;;
11220;SDS011;8517;53.546;10.104;2022-12-10T05:48:35;12.87;;;9.13;;
11220;SDS011;8517;53.546;10.104;2022-12-10T05:51:03;17.00;;;10.53;;
11220;SDS011;8517;53.546;10.104;2022-12-10T05:53:30;12.60;;;9.43;;
11220;SDS011;8517;53.546;10.104;2022-12-10T05:56:00;16.57;;;12.20;;
11220;SDS011;8517;53.546;10.104;2022-12-10T05:58:27;14.07;;;10.40;;
11220;SDS011;8517;53.546;10.104;2022-12-10T06:00:55;12.43;;;8.73;;
11220;SDS011;8517;53.546;10.104;2022-12-10T06:03:23;15.03;;;10.47;;
11220;SDS011;8517;53.546;10.104;2022-12-10T06:05:52;13.20;;;9.60;;
11220;SDS011;8517;53.546;10.104;2022-12-10T06:08:19;14.30;;;10.27;;
11220;SDS011;8517;53.546;10.104;2022-12-10T06:10:46;12.83;;;10.10;;
11220;SDS011;8517;53.546;10.104;2022-12-10T06:13:13;9.90;;;7.03;;
11220;SDS011;8517;53.546;10.104;2022-12-10T06:15:40;14.00;;;9.50;;
11220;SDS011;8517;53.546;10.104;2022-12-10T06:18:07;13.67;;;9.20;;
11220;SDS011;8517;53.546;10.104;2022-12-10T06:20:39;11.20;;;8.37;;
11220;SDS011;8517;53.546;10.104;2022-12-10T06:23:06;13.27;;;8.73;;
11220;SDS011;8517;53.546;10.104;2022-12-10T06:25:33;13.27;;;9.03;;
11220;SDS011;8517;53.546;10.104;2022-12-10T06:28:03;12.23;;;8.90;;
11220;SDS011;8517;53.546;10.104;2022-12-10T06:30:30;9.43;;;6.53;;
11220;SDS011;8517;53.546;10.104;2022-12-10T06:32:57;11.13;;;7.80;;
11220;SDS011;8517;53.546;10.104;2022-12-10T06:35:24;12.40;;;7.63;;
11220;SDS011;8517;53.546;10.104;2022-12-10T06:37:52;12.20;;;9.07;;
11220;SDS011;8517;53.546;10.104;2022-12-10T06:40:19;10.60;;;7.70;;
11220;SDS011;8517;53.546;10.104;2022-12-10T06:42:45;14.00;;;10.13;;
11220;SDS011;8517;53.546;10.104;2022-12-10T06:45:12;11.23;;;8.67;;
11220;SDS011;8517;53.546;10.104;2022-12-10T06:47:39;11.90;;;8.57;;
11220;SDS011;8517;53.546;10.104;2022-12-10T06:50:06;11.90;;;8.33;;
11220;SDS011;8517;53.546;10.104;2022-12-10T06:52:33;11.70;;;8.60;;
11220;SDS011;8517;53.546;10.104;2022-12-10T06:55:01;11.40;;;8.10;;
11220;SDS011;8517;53.546;10.104;2022-12-10T06:57:28;15.10;;;11.10;;
11220;SDS011;8517;53.546;10.104;2022-12-10T06:59:55;12.20;;;8.73;;
11220;SDS011;8517;53.546;10.104;2022-12-10T07:02:22;11.43;;;7.73;;
11220;SDS011;8517;53.546;10.104;2022-12-10T07:04:49;13.63;;;9.70;;
11220;SDS011;8517;53.546;10.104;2022-12-10T07:07:21;13.13;;;9.27;;
11220;SDS011;8517;53.546;10.104;2022-12-10T07:09:48;13.40;;;9.00;;
11220;SDS011;8517;53.546;10.104;2022-12-10T07:12:16;13.77;;;8.27;;
11220;SDS011;8517;53.546;10.104;2022-12-10T07:14:43;12.67;;;9.03;;
11220;SDS011;8517;53.546;10.104;2022-12-10T07:17:09;11.00;;;7.53;;
11220;SDS011;8517;53.546;10.104;2022-12-10T07:19:36;8.07;;;6.17;;
11220;SDS011;8517;53.546;10.104;2022-12-10T07:22:03;13.37;;;8.93;;
11220;SDS011;8517;53.546;10.104;2022-12-10T07:24:30;16.97;;;10.43;;
11220;SDS011;8517;53.546;10.104;2022-12-10T07:26:57;13.80;;;9.67;;
11220;SDS011;8517;53.546;10.104;2022-12-10T07:29:25;11.57;;;8.73;;
11220;SDS011;8517;53.546;10.104;2022-12-10T07:31:52;8.77;;;6.63;;
11220;SDS011;8517;53.546;10.104;2022-12-10T07:34:19;11.70;;;7.67;;
11220;SDS011;8517;53.546;10.104;2022-12-10T07:36:46;13.57;;;9.00;;
11220;SDS011;8517;53.546;10.104;2022-12-10T07:39:13;13.87;;;9.43;;
11220;SDS011;8517;53.546;10.104;2022-12-10T07:41:42;11.77;;;8.73;;
11220;SDS011;8517;53.546;10.104;2022-12-10T07:44:10;10.37;;;8.60;;
11220;SDS011;8517;53.546;10.104;2022-12-10T07:46:39;10.07;;;8.07;;
11220;SDS011;8517;53.546;10.104;2022-12-10T07:49:06;12.97;;;8.83;;
11220;SDS011;8517;53.546;10.104;2022-12-10T07:51:33;11.77;;;8.70;;
11220;SDS011;8517;53.546;10.104;2022-12-10T07:54:00;12.77;;;9.23;;
11220;SDS011;8517;53.546;10.104;2022-12-10T07:56:27;13.90;;;10.40;;
11220;SDS011;8517;53.546;10.104;2022-12-10T07:58:53;13.10;;;9.60;;
11220;SDS011;8517;53.546;10.104;2022-12-10T08:01:21;14.80;;;10.03;;
11220;SDS011;8517;53.546;10.104;2022-12-10T08:03:51;13.63;;;9.63;;
11220;SDS011;8517;53.546;10.104;2022-12-10T08:06:21;14.13;;;10.00;;
11220;SDS011;8517;53.546;10.104;2022-12-10T08:08:48;13.17;;;10.13;;
11220;SDS011;8517;53.546;10.104;2022-12-10T08:11:16;12.30;;;9.43;;
11220;SDS011;8517;53.546;10.104;2022-12-10T08:13:44;12.97;;;10.27;;
11220;SDS011;8517;53.546;10.104;2022-12-10T08:16:12;15.43;;;10.60;;
11220;SDS011;8517;53.546;10.104;2022-12-10T08:18:40;14.77;;;10.90;;
11220;SDS011;8517;53.546;10.104;2022-12-10T08:21:09;15.30;;;8.60;;
11220;SDS011;8517;53.546;10.104;2022-12-10T08:23:37;16.57;;;10.63;;
11220;SDS011;8517;53.546;10.104;2022-12-10T08:26:05;16.73;;;11.17;;
11220;SDS011;8517;53.546;10.104;2022-12-10T08:28:32;17.53;;;10.63;;
11220;SDS011;8517;53.546;10.104;2022-12-10T08:30:59;15.57;;;10.63;;
11220;SDS011;8517;53.546;10.104;2022-12-10T08:33:26;17.57;;;10.60;;
11220;SDS011;8517;53.546;10.104;2022-12-10T08:35:56;17.90;;;12.60;;
11220;SDS011;8517;53.546;10.104;2022-12-10T08:38:26;12.57;;;10.50;;
11220;SDS011;8517;53.546;10.104;2022-12-10T08:40:53;13.83;;;9.63;;
11220;SDS011;8517;53.546;10.104;2022-12-10T08:43:20;13.30;;;9.67;;
11220;SDS011;8517;53.546;10.104;2022-12-10T08:45:47;11.37;;;9.17;;
11220;SDS011;8517;53.546;10.104;2022-12-10T08:48:14;17.10;;;10.43;;
11220;SDS011;8517;53.546;10.104;2022-12-10T08:50:41;11.80;;;9.17;;
11220;SDS011;8517;53.546;10.104;2022-12-10T08:53:10;12.87;;;9.90;;
11220;SDS011;8517;53.546;10.104;2022-12-10T08:55:39;14.00;;;8.93;;
11220;SDS011;8517;53.546;10.104;2022-12-10T08:58:05;13.60;;;9.37;;
11220;SDS011;8517;53.546;10.104;2022-12-10T09:00:33;12.47;;;9.07;;
11220;SDS011;8517;53.546;10.104;2022-12-10T09:03:03;11.47;;;8.27;;
11220;SDS011;8517;53.546;10.104;2022-12-10T09:05:30;12.93;;;8.83;;
11220;SDS011;8517;53.546;10.104;2022-12-10T09:07:57;14.37;;;10.03;;
11220;SDS011;8517;53.546;10.104;2022-12-10T09:10:24;20.90;;;14.60;;
11220;SDS011;8517;53.546;10.104;2022-12-10T09:12:52;11.33;;;9.07;;
11220;SDS011;8517;53.546;10.104;2022-12-10T09:15:19;11.87;;;9.20;;
11220;SDS011;8517;53.546;10.104;2022-12-10T09:17:46;10.67;;;8.00;;
11220;SDS011;8517;53.546;10.104;2022-12-10T09:20:12;10.97;;;7.83;;
11220;SDS011;8517;53.546;10.104;2022-12-10T09:22:39;10.60;;;7.90;;
11220;SDS011;8517;53.546;10.104;2022-12-10T09:25:07;11.37;;;7.63;;
11220;SDS011;8517;53.546;10.104;2022-12-10T09:27:36;10.47;;;8.03;;
11220;SDS011;8517;53.546;10.104;2022-12-10T09:30:05;11.03;;;7.83;;
11220;SDS011;8517;53.546;10.104;2022-12-10T09:32:33;11.77;;;7.87;;
11220;SDS011;8517;53.546;10.104;2022-12-10T09:35:00;10.47;;;7.73;;
11220;SDS011;8517;53.546;10.104;2022-12-10T09:37:27;9.60;;;6.93;;
11220;SDS011;8517;53.546;10.104;2022-12-10T09:39:54;10.10;;;7.17;;
11220;SDS011;8517;53.546;10.104;2022-12-10T09:42:24;9.90;;;7.73;;
11220;SDS011;8517;53.546;10.104;2022-12-10T09:45:01;9.13;;;7.37;;
11220;SDS011;8517;53.546;10.104;2022-12-10T09:47:35;10.67;;;7.97;;
11220;SDS011;8517;53.546;10.104;2022-12-10T09:50:13;9.73;;;7.70;;
11220;SDS011;8517;53.546;10.104;2022-12-10T09:52:46;10.63;;;7.63;;
11220;SDS011;8517;53.546;10.104;2022-12-10T09:55:16;10.30;;;7.67;;
11220;SDS011;8517;53.546;10.104;2022-12-10T09:57:46;13.90;;;8.67;;
11220;SDS011;8517;53.546;10.104;2022-12-10T10:00:22;9.40;;;7.20;;
11220;SDS011;8517;53.546;10.104;2022-12-10T10:02:54;11.30;;;8.67;;
11220;SDS011;8517;53.546;10.104;2022-12-10T10:05:25;13.80;;;10.30;;
11220;SDS011;8517;53.546;10.104;2022-12-10T10:07:54;11.67;;;8.63;;
11220;SDS011;8517;53.546;10.104;2022-12-10T10:10:25;10.83;;;8.47;;
11220;SDS011;8517;53.546;10.104;2022-12-10T10:12:54;10.53;;;8.67;;
11220;SDS011;8517;53.546;10.104;2022-12-10T10:15:28;11.43;;;9.00;;
11220;SDS011;8517;53.546;10.104;2022-12-10T10:17:58;9.87;;;7.90;;
11220;SDS011;8517;53.546;10.104;2022-12-10T10:20:33;10.20;;;7.90;;
11220;SDS011;8517;53.546;10.104;2022-12-10T10:23:31;11.30;;;7.97;;
11220;SDS011;8517;53.546;10.104;2022-12-10T10:25:58;11.07;;;7.87;;
11220;SDS011;8517;53.546;10.104;2022-12-10T10:28:25;10.63;;;8.13;;
11220;SDS011;8517;53.546;10.104;2022-12-10T10:30:55;12.17;;;8.57;;
11220;SDS011;8517;53.546;10.104;2022-12-10T10:33:22;9.83;;;8.23;;
11220;SDS011;8517;53.546;10.104;2022-12-10T10:35:50;11.27;;;8.47;;
11220;SDS011;8517;53.546;10.104;2022-12-10T10:38:22;10.50;;;8.30;;
11220;SDS011;8517;53.546;10.104;2022-12-10T10:40:52;10.00;;;8.10;;
11220;SDS011;8517;53.546;10.104;2022-12-10T10:43:22;11.03;;;8.33;;
11220;SDS011;8517;53.546;10.104;2022-12-10T10:45:52;9.23;;;7.80;;
11220;SDS011;8517;53.546;10.104;2022-12-10T10:48:24;11.27;;;8.40;;
11220;SDS011;8517;53.546;10.104;2022-12-10T10:50:53;11.17;;;9.13;;
11220;SDS011;8517;53.546;10.104;2022-12-10T10:53:22;11.10;;;9.33;;
11220;SDS011;8517;53.546;10.104;2022-12-10T10:55:55;12.50;;;9.17;;
11220;SDS011;8517;53.546;10.104;2022-12-10T10:58:25;13.43;;;10.33;;
11220;SDS011;8517;53.546;10.104;2022-12-10T11:00:55;13.70;;;10.30;;
11220;SDS011;8517;53.546;10.104;2022-12-10T11:03:23;13.40;;;10.07;;
11220;SDS011;8517;53.546;10.104;2022-12-10T11:05:51;11.97;;;9.17;;
11220;SDS011;8517;53.546;10.104;2022-12-10T11:08:18;12.83;;;9.67;;
11220;SDS011;8517;53.546;10.104;2022-12-10T11:10:47;11.60;;;8.60;;
11220;SDS011;8517;53.546;10.104;2022-12-10T11:13:18;15.30;;;9.80;;
11220;SDS011;8517;53.546;10.104;2022-12-10T11:15:55;12.63;;;9.60;;
11220;SDS011;8517;53.546;10.104;2022-12-10T11:18:27;12.30;;;8.97;;
11220;SDS011;8517;53.546;10.104;2022-12-10T11:21:01;11.17;;;8.57;;
11220;SDS011;8517;53.546;10.104;2022-12-10T11:23:31;9.70;;;7.77;;
11220;SDS011;8517;53.546;10.104;2022-12-10T11:26:06;13.20;;;9.27;;
11220;SDS011;8517;53.546;10.104;2022-12-10T11:28:45;11.40;;;7.97;;
11220;SDS011;8517;53.546;10.104;2022-12-10T11:31:29;10.67;;;8.60;;
11220;SDS011;8517;53.546;10.104;2022-12-10T11:34:04;11.00;;;8.97;;
11220;SDS011;8517;53.546;10.104;2022-12-10T11:36:38;11.20;;;8.97;;
11220;SDS011;8517;53.546;10.104;2022-12-10T11:39:20;12.43;;;9.20;;
11220;SDS011;8517;53.546;10.104;2022-12-10T11:41:56;14.53;;;11.37;;
11220;SDS011;8517;53.546;10.104;2022-12-10T11:44:30;18.87;;;10.63;;
11220;SDS011;8517;53.546;10.104;2022-12-10T11:47:25;12.73;;;9.60;;
11220;SDS011;8517;53.546;10.104;2022-12-10T11:50:01;8.10;;;5.67;;
11220;SDS011;8517;53.546;10.104;2022-12-10T11:52:47;12.63;;;8.97;;
11220;SDS011;8517;53.546;10.104;2022-12-10T11:55:46;14.27;;;10.20;;
11220;SDS011;8517;53.546;10.104;2022-12-10T11:58:33;11.17;;;8.60;;
11220;SDS011;8517;53.546;10.104;2022-12-10T12:01:17;12.23;;;9.53;;
11220;SDS011;8517;53.546;10.104;2022-12-10T12:09:46;13.23;;;10.00;;
11220;SDS011;8517;53.546;10.104;2022-12-10T12:12:38;13.93;;;10.80;;
11220;SDS011;8517;53.546;10.104;2022-12-10T12:15:15;13.67;;;10.23;;
11220;SDS011;8517;53.546;10.104;2022-12-10T12:17:45;12.97;;;9.50;;
11220;SDS011;8517;53.546;10.104;2022-12-10T12:20:19;11.60;;;8.97;;
11220;SDS011;8517;53.546;10.104;2022-12-10T12:22:54;12.87;;;9.50;;
11220;SDS011;8517;53.546;10.104;2022-12-10T12:25:27;11.67;;;9.17;;
11220;SDS011;8517;53.546;10.104;2022-12-10T12:28:00;10.03;;;8.37;;
11220;SDS011;8517;53.546;10.104;2022-12-10T12:30:31;11.40;;;9.30;;
11220;SDS011;8517;53.546;10.104;2022-12-10T12:33:01;13.47;;;10.23;;
11220;SDS011;8517;53.546;10.104;2022-12-10T12:35:44;13.27;;;10.77;;
11220;SDS011;8517;53.546;10.104;2022-12-10T12:38:19;11.83;;;9.23;;
11220;SDS011;8517;53.546;10.104;2022-12-10T12:41:01;11.87;;;8.90;;
11220;SDS011;8517;53.546;10.104;2022-12-10T12:43:34;13.33;;;9.83;;
11220;SDS011;8517;53.546;10.104;2022-12-10T12:46:10;12.10;;;9.80;;
11220;SDS011;8517;53.546;10.104;2022-12-10T12:48:42;13.20;;;10.13;;
11220;SDS011;8517;53.546;10.104;2022-12-10T12:51:17;14.10;;;11.37;;
11220;SDS011;8517;53.546;10.104;2022-12-10T12:53:49;15.07;;;11.37;;
11220;SDS011;8517;53.546;10.104;2022-12-10T12:56:29;15.20;;;11.33;;
11220;SDS011;8517;53.546;10.104;2022-12-10T12:59:35;12.47;;;9.70;;
11220;SDS011;8517;53.546;10.104;2022-12-10T13:02:18;12.47;;;10.67;;
11220;SDS011;8517;53.546;10.104;2022-12-10T13:04:57;13.87;;;10.00;;
11220;SDS011;8517;53.546;10.104;2022-12-10T13:07:28;14.37;;;11.43;;
11220;SDS011;8517;53.546;10.104;2022-12-10T13:13:30;17.30;;;12.20;;
11220;SDS011;8517;53.546;10.104;2022-12-10T13:19:49;13.37;;;10.07;;
11220;SDS011;8517;53.546;10.104;2022-12-10T13:22:42;14.17;;;10.70;;
11220;SDS011;8517;53.546;10.104;2022-12-10T13:25:21;15.23;;;11.20;;
11220;SDS011;8517;53.546;10.104;2022-12-10T13:28:16;13.47;;;10.77;;
11220;SDS011;8517;53.546;10.104;2022-12-10T13:34:04;13.07;;;10.30;;
11220;SDS011;8517;53.546;10.104;2022-12-10T13:37:04;13.40;;;10.17;;
11220;SDS011;8517;53.546;10.104;2022-12-10T13:39:45;14.37;;;11.53;;
11220;SDS011;8517;53.546;10.104;2022-12-10T13:42:27;17.67;;;11.73;;
11220;SDS011;8517;53.546;10.104;2022-12-10T13:45:24;15.33;;;11.57;;
11220;SDS011;8517;53.546;10.104;2022-12-10T13:48:17;15.13;;;11.50;;
11220;SDS011;8517;53.546;10.104;2022-12-10T13:50:52;15.43;;;11.07;;
11220;SDS011;8517;53.546;10.104;2022-12-10T13:54:41;14.83;;;11.97;;
11220;SDS011;8517;53.546;10.104;2022-12-10T13:57:12;15.53;;;11.13;;
11220;SDS011;8517;53.546;10.104;2022-12-10T13:59:52;16.97;;;12.67;;
11220;SDS011;8517;53.546;10.104;2022-12-10T14:02:35;15.10;;;11.70;;
11220;SDS011;8517;53.546;10.104;2022-12-10T14:05:22;16.20;;;11.83;;
11220;SDS011;8517;53.546;10.104;2022-12-10T14:08:20;14.47;;;11.73;;
11220;SDS011;8517;53.546;10.104;2022-12-10T14:10:55;15.40;;;12.20;;
11220;SDS011;8517;53.546;10.104;2022-12-10T14:13:28;15.70;;;11.53;;
11220;SDS011;8517;53.546;10.104;2022-12-10T14:16:08;16.33;;;11.60;;
11220;SDS011;8517;53.546;10.104;2022-12-10T14:19:20;17.47;;;12.77;;
11220;SDS011;8517;53.546;10.104;2022-12-10T14:22:31;16.17;;;12.40;;
11220;SDS011;8517;53.546;10.104;2022-12-10T14:25:02;18.30;;;12.67;;
11220;SDS011;8517;53.546;10.104;2022-12-10T14:27:33;21.30;;;14.33;;
11220;SDS011;8517;53.546;10.104;2022-12-10T14:30:25;17.37;;;12.93;;
11220;SDS011;8517;53.546;10.104;2022-12-10T14:33:07;15.80;;;11.43;;
11220;SDS011;8517;53.546;10.104;2022-12-10T14:35:38;16.63;;;12.23;;
11220;SDS011;8517;53.546;10.104;2022-12-10T14:38:12;16.27;;;11.50;;
11220;SDS011;8517;53.546;10.104;2022-12-10T14:40:43;17.43;;;12.57;;
11220;SDS011;8517;53.546;10.104;2022-12-10T14:43:11;22.27;;;14.80;;
11220;SDS011;8517;53.546;10.104;2022-12-10T14:45:45;19.67;;;14.00;;
11220;SDS011;8517;53.546;10.104;2022-12-10T14:48:14;20.40;;;14.30;;
11220;SDS011;8517;53.546;10.104;2022-12-10T14:50:42;15.67;;;11.77;;
11220;SDS011;8517;53.546;10.104;2022-12-10T14:53:11;15.93;;;11.90;;
11220;SDS011;8517;53.546;10.104;2022-12-10T14:55:40;17.03;;;12.37;;
11220;SDS011;8517;53.546;10.104;2022-12-10T14:58:14;15.83;;;11.97;;
11220;SDS011;8517;53.546;10.104;2022-12-10T15:01:03;19.03;;;13.00;;
11220;SDS011;8517;53.546;10.104;2022-12-10T15:03:32;19.13;;;13.20;;
11220;SDS011;8517;53.546;10.104;2022-12-10T15:06:06;18.17;;;12.53;;
11220;SDS011;8517;53.546;10.104;2022-12-10T15:11:33;17.30;;;12.90;;
11220;SDS011;8517;53.546;10.104;2022-12-10T15:16:56;17.23;;;12.37;;
11220;SDS011;8517;53.546;10.104;2022-12-10T15:19:24;19.17;;;13.10;;